sensor_id;sensor_type;location;lat;lon;timestamp;P1;durP1;ratioP1;P2;durP2;ratioP2
35971;SDS011;22052;0.000;0.000;2023-06-22T00:00:51;6.25;;;1.98;;
35971;SDS011;22052;0.000;0.000;2023-06-22T00:03:17;5.22;;;2.35;;
35971;SDS011;22052;0.000;0.000;2023-06-22T00:05:44;5.68;;;2.10;;
35971;SDS011;22052;0.000;0.000;2023-06-22T00:08:11;5.47;;;2.03;;
35971;SDS011;22052;0.000;0.000;2023-06-22T00:10:37;4.40;;;1.90;;
35971;SDS011;22052;0.000;0.000;2023-06-22T00:13:03;7.85;;;2.30;;
35971;SDS011;22052;0.000;0.000;2023-06-22T00:15:29;4.05;;;1.90;;
35971;SDS011;22052;0.000;0.000;2023-06-22T00:17:56;4.50;;;2.05;;
35971;SDS011;22052;0.000;0.000;2023-06-22T00:20:22;6.10;;;2.05;;
35971;SDS011;22052;0.000;0.000;2023-06-22T00:22:53;5.10;;;2.15;;
35971;SDS011;22052;0.000;0.000;2023-06-22T00:25:19;4.03;;;2.00;;
35971;SDS011;22052;0.000;0.000;2023-06-22T00:27:45;5.20;;;2.30;;
35971;SDS011;22052;0.000;0.000;2023-06-22T00:30:11;5.78;;;2.20;;
35971;SDS011;22052;0.000;0.000;2023-06-22T00:32:37;5.43;;;2.22;;
35971;SDS011;22052;0.000;0.000;2023-06-22T00:35:04;5.00;;;2.38;;
35971;SDS011;22052;0.000;0.000;2023-06-22T00:37:30;4.53;;;2.05;;
35971;SDS011;22052;0.000;0.000;2023-06-22T00:39:56;5.30;;;2.60;;
35971;SDS011;22052;0.000;0.000;2023-06-22T00:42:22;3.70;;;2.20;;
35971;SDS011;22052;0.000;0.000;2023-06-22T00:44:48;3.38;;;2.08;;
35971;SDS011;22052;0.000;0.000;2023-06-22T00:47:15;6.57;;;2.25;;
35971;SDS011;22052;0.000;0.000;2023-06-22T00:49:42;4.43;;;2.33;;
35971;SDS011;22052;0.000;0.000;2023-06-22T00:52:08;5.03;;;2.00;;
35971;SDS011;22052;0.000;0.000;2023-06-22T00:54:40;5.18;;;2.50;;
35971;SDS011;22052;0.000;0.000;2023-06-22T00:57:13;4.72;;;2.08;;
35971;SDS011;22052;0.000;0.000;2023-06-22T00:59:44;4.97;;;2.20;;
35971;SDS011;22052;0.000;0.000;2023-06-22T01:02:10;5.25;;;2.25;;
35971;SDS011;22052;0.000;0.000;2023-06-22T01:04:37;5.25;;;2.20;;
35971;SDS011;22052;0.000;0.000;2023-06-22T01:09:57;6.85;;;2.30;;
35971;SDS011;22052;0.000;0.000;2023-06-22T01:12:25;5.15;;;2.20;;
35971;SDS011;22052;0.000;0.000;2023-06-22T01:15:10;5.30;;;2.20;;
35971;SDS011;22052;0.000;0.000;2023-06-22T01:17:37;4.50;;;2.20;;
35971;SDS011;22052;0.000;0.000;2023-06-22T01:20:06;4.13;;;2.08;;
35971;SDS011;22052;0.000;0.000;2023-06-22T01:22:37;4.32;;;2.15;;
35971;SDS011;22052;0.000;0.000;2023-06-22T01:25:11;4.07;;;2.03;;
35971;SDS011;22052;0.000;0.000;2023-06-22T01:30:07;3.75;;;2.00;;
35971;SDS011;22052;0.000;0.000;2023-06-22T01:32:36;5.90;;;2.30;;
35971;SDS011;22052;0.000;0.000;2023-06-22T01:35:04;4.10;;;2.03;;
35971;SDS011;22052;0.000;0.000;2023-06-22T01:37:31;3.92;;;2.03;;
35971;SDS011;22052;0.000;0.000;2023-06-22T01:39:58;4.72;;;2.10;;
35971;SDS011;22052;0.000;0.000;2023-06-22T01:42:24;3.72;;;1.92;;
35971;SDS011;22052;0.000;0.000;2023-06-22T01:44:52;4.00;;;2.00;;
35971;SDS011;22052;0.000;0.000;2023-06-22T01:47:20;8.23;;;2.30;;
35971;SDS011;22052;0.000;0.000;2023-06-22T01:49:46;3.65;;;1.83;;
35971;SDS011;22052;0.000;0.000;2023-06-22T01:52:12;3.22;;;1.92;;
35971;SDS011;22052;0.000;0.000;2023-06-22T01:54:39;4.03;;;2.15;;
35971;SDS011;22052;0.000;0.000;2023-06-22T01:57:05;4.30;;;2.10;;
35971;SDS011;22052;0.000;0.000;2023-06-22T01:59:36;4.57;;;2.13;;
35971;SDS011;22052;0.000;0.000;2023-06-22T02:02:06;4.70;;;2.03;;
35971;SDS011;22052;0.000;0.000;2023-06-22T02:04:38;4.50;;;2.20;;
35971;SDS011;22052;0.000;0.000;2023-06-22T02:07:07;3.45;;;2.20;;
35971;SDS011;22052;0.000;0.000;2023-06-22T02:09:35;3.90;;;2.10;;
35971;SDS011;22052;0.000;0.000;2023-06-22T02:12:03;4.22;;;2.10;;
35971;SDS011;22052;0.000;0.000;2023-06-22T02:14:30;4.32;;;1.95;;
35971;SDS011;22052;0.000;0.000;2023-06-22T02:16:57;4.43;;;2.25;;
35971;SDS011;22052;0.000;0.000;2023-06-22T02:19:26;4.65;;;1.95;;
35971;SDS011;22052;0.000;0.000;2023-06-22T02:21:52;4.05;;;2.17;;
35971;SDS011;22052;0.000;0.000;2023-06-22T02:24:19;4.47;;;1.90;;
35971;SDS011;22052;0.000;0.000;2023-06-22T02:26:48;4.35;;;2.15;;
35971;SDS011;22052;0.000;0.000;2023-06-22T02:29:15;3.65;;;1.90;;
35971;SDS011;22052;0.000;0.000;2023-06-22T02:31:41;6.88;;;2.20;;
35971;SDS011;22052;0.000;0.000;2023-06-22T02:34:07;4.60;;;2.15;;
35971;SDS011;22052;0.000;0.000;2023-06-22T02:36:33;4.80;;;2.10;;
35971;SDS011;22052;0.000;0.000;2023-06-22T02:38:59;4.63;;;2.10;;
35971;SDS011;22052;0.000;0.000;2023-06-22T02:41:26;4.78;;;2.00;;
35971;SDS011;22052;0.000;0.000;2023-06-22T02:43:53;4.07;;;2.17;;
35971;SDS011;22052;0.000;0.000;2023-06-22T02:46:19;4.40;;;2.20;;
35971;SDS011;22052;0.000;0.000;2023-06-22T02:48:45;3.50;;;1.75;;
35971;SDS011;22052;0.000;0.000;2023-06-22T02:51:11;3.70;;;1.90;;
35971;SDS011;22052;0.000;0.000;2023-06-22T02:53:37;3.30;;;1.92;;
35971;SDS011;22052;0.000;0.000;2023-06-22T02:56:03;3.60;;;2.25;;
35971;SDS011;22052;0.000;0.000;2023-06-22T02:58:30;4.97;;;2.30;;
35971;SDS011;22052;0.000;0.000;2023-06-22T03:01:03;3.55;;;2.13;;
35971;SDS011;22052;0.000;0.000;2023-06-22T03:03:30;5.97;;;2.30;;
35971;SDS011;22052;0.000;0.000;2023-06-22T03:05:56;2.90;;;1.80;;
35971;SDS011;22052;0.000;0.000;2023-06-22T03:08:22;5.35;;;1.90;;
35971;SDS011;22052;0.000;0.000;2023-06-22T03:10:48;3.85;;;2.00;;
35971;SDS011;22052;0.000;0.000;2023-06-22T03:13:14;3.75;;;2.20;;
35971;SDS011;22052;0.000;0.000;2023-06-22T03:15:41;4.60;;;2.00;;
35971;SDS011;22052;0.000;0.000;2023-06-22T03:18:07;5.35;;;2.42;;
35971;SDS011;22052;0.000;0.000;2023-06-22T03:20:34;3.97;;;1.80;;
35971;SDS011;22052;0.000;0.000;2023-06-22T03:23:00;3.78;;;2.20;;
35971;SDS011;22052;0.000;0.000;2023-06-22T03:25:26;3.45;;;2.30;;
35971;SDS011;22052;0.000;0.000;2023-06-22T03:27:52;5.15;;;2.08;;
35971;SDS011;22052;0.000;0.000;2023-06-22T03:30:18;4.18;;;2.25;;
35971;SDS011;22052;0.000;0.000;2023-06-22T03:32:44;4.13;;;2.10;;
35971;SDS011;22052;0.000;0.000;2023-06-22T03:35:11;3.10;;;1.90;;
35971;SDS011;22052;0.000;0.000;2023-06-22T03:37:39;3.90;;;2.20;;
35971;SDS011;22052;0.000;0.000;2023-06-22T03:40:05;4.15;;;1.90;;
35971;SDS011;22052;0.000;0.000;2023-06-22T03:42:33;3.15;;;2.10;;
35971;SDS011;22052;0.000;0.000;2023-06-22T03:45:03;3.08;;;1.70;;
35971;SDS011;22052;0.000;0.000;2023-06-22T03:47:29;3.60;;;1.85;;
35971;SDS011;22052;0.000;0.000;2023-06-22T03:49:55;5.22;;;2.22;;
35971;SDS011;22052;0.000;0.000;2023-06-22T03:52:21;3.15;;;1.80;;
35971;SDS011;22052;0.000;0.000;2023-06-22T03:54:48;2.42;;;1.65;;
35971;SDS011;22052;0.000;0.000;2023-06-22T03:57:14;5.13;;;2.38;;
35971;SDS011;22052;0.000;0.000;2023-06-22T03:59:40;3.40;;;1.80;;
35971;SDS011;22052;0.000;0.000;2023-06-22T04:02:06;3.42;;;2.00;;
35971;SDS011;22052;0.000;0.000;2023-06-22T04:04:32;3.50;;;2.05;;
35971;SDS011;22052;0.000;0.000;2023-06-22T04:07:00;3.75;;;1.80;;
35971;SDS011;22052;0.000;0.000;2023-06-22T04:09:26;3.72;;;1.90;;
35971;SDS011;22052;0.000;0.000;2023-06-22T04:11:52;3.58;;;1.73;;
35971;SDS011;22052;0.000;0.000;2023-06-22T04:14:18;3.38;;;1.98;;
35971;SDS011;22052;0.000;0.000;2023-06-22T04:16:44;3.55;;;2.13;;
35971;SDS011;22052;0.000;0.000;2023-06-22T04:19:11;3.88;;;1.90;;
35971;SDS011;22052;0.000;0.000;2023-06-22T04:21:41;3.58;;;1.88;;
35971;SDS011;22052;0.000;0.000;2023-06-22T04:24:08;4.65;;;2.17;;
35971;SDS011;22052;0.000;0.000;2023-06-22T04:26:34;4.50;;;2.00;;
35971;SDS011;22052;0.000;0.000;2023-06-22T04:29:02;4.70;;;1.83;;
35971;SDS011;22052;0.000;0.000;2023-06-22T04:31:30;7.30;;;2.50;;
35971;SDS011;22052;0.000;0.000;2023-06-22T04:33:57;4.07;;;1.95;;
35971;SDS011;22052;0.000;0.000;2023-06-22T04:36:38;4.15;;;2.30;;
35971;SDS011;22052;0.000;0.000;2023-06-22T04:39:09;3.45;;;1.83;;
35971;SDS011;22052;0.000;0.000;2023-06-22T04:41:38;3.97;;;1.85;;
35971;SDS011;22052;0.000;0.000;2023-06-22T04:44:11;4.38;;;2.08;;
35971;SDS011;22052;0.000;0.000;2023-06-22T04:46:37;4.68;;;1.98;;
35971;SDS011;22052;0.000;0.000;2023-06-22T04:49:04;4.85;;;2.00;;
35971;SDS011;22052;0.000;0.000;2023-06-22T04:51:40;4.10;;;2.05;;
35971;SDS011;22052;0.000;0.000;2023-06-22T04:54:06;4.03;;;2.10;;
35971;SDS011;22052;0.000;0.000;2023-06-22T04:56:33;6.60;;;1.90;;
35971;SDS011;22052;0.000;0.000;2023-06-22T04:58:59;7.20;;;2.10;;
35971;SDS011;22052;0.000;0.000;2023-06-22T05:01:26;4.35;;;1.90;;
35971;SDS011;22052;0.000;0.000;2023-06-22T05:03:52;5.20;;;2.05;;
35971;SDS011;22052;0.000;0.000;2023-06-22T05:06:24;6.10;;;2.00;;
35971;SDS011;22052;0.000;0.000;2023-06-22T05:08:52;7.07;;;2.03;;
35971;SDS011;22052;0.000;0.000;2023-06-22T05:11:22;9.68;;;2.40;;
35971;SDS011;22052;0.000;0.000;2023-06-22T05:13:48;6.50;;;2.13;;
35971;SDS011;22052;0.000;0.000;2023-06-22T05:16:14;4.95;;;1.83;;
35971;SDS011;22052;0.000;0.000;2023-06-22T05:18:41;5.97;;;2.20;;
35971;SDS011;22052;0.000;0.000;2023-06-22T05:21:08;6.05;;;2.05;;
35971;SDS011;22052;0.000;0.000;2023-06-22T05:23:34;7.35;;;2.05;;
35971;SDS011;22052;0.000;0.000;2023-06-22T05:26:00;8.43;;;2.15;;
35971;SDS011;22052;0.000;0.000;2023-06-22T05:28:27;6.30;;;1.90;;
35971;SDS011;22052;0.000;0.000;2023-06-22T05:30:53;7.32;;;2.17;;
35971;SDS011;22052;0.000;0.000;2023-06-22T05:33:19;6.97;;;2.13;;
35971;SDS011;22052;0.000;0.000;2023-06-22T05:35:45;5.50;;;2.10;;
35971;SDS011;22052;0.000;0.000;2023-06-22T05:38:12;3.80;;;1.88;;
35971;SDS011;22052;0.000;0.000;2023-06-22T05:40:38;6.60;;;2.08;;
35971;SDS011;22052;0.000;0.000;2023-06-22T05:43:04;7.22;;;2.05;;
35971;SDS011;22052;0.000;0.000;2023-06-22T05:45:30;9.02;;;2.35;;
35971;SDS011;22052;0.000;0.000;2023-06-22T05:47:56;6.25;;;2.30;;
35971;SDS011;22052;0.000;0.000;2023-06-22T05:50:22;5.05;;;2.17;;
35971;SDS011;22052;0.000;0.000;2023-06-22T05:52:48;7.45;;;2.40;;
35971;SDS011;22052;0.000;0.000;2023-06-22T05:55:14;10.15;;;2.63;;
35971;SDS011;22052;0.000;0.000;2023-06-22T05:57:43;8.48;;;2.20;;
35971;SDS011;22052;0.000;0.000;2023-06-22T06:00:09;6.32;;;2.15;;
35971;SDS011;22052;0.000;0.000;2023-06-22T06:02:36;7.28;;;2.38;;
35971;SDS011;22052;0.000;0.000;2023-06-22T06:05:08;8.32;;;2.40;;
35971;SDS011;22052;0.000;0.000;2023-06-22T06:07:34;8.07;;;2.45;;
35971;SDS011;22052;0.000;0.000;2023-06-22T06:10:02;6.70;;;2.80;;
35971;SDS011;22052;0.000;0.000;2023-06-22T06:12:29;8.68;;;2.40;;
35971;SDS011;22052;0.000;0.000;2023-06-22T06:14:55;7.97;;;2.50;;
35971;SDS011;22052;0.000;0.000;2023-06-22T06:17:22;11.93;;;2.58;;
35971;SDS011;22052;0.000;0.000;2023-06-22T06:19:48;7.05;;;2.50;;
35971;SDS011;22052;0.000;0.000;2023-06-22T06:22:14;7.88;;;2.45;;
35971;SDS011;22052;0.000;0.000;2023-06-22T06:24:40;6.05;;;2.17;;
35971;SDS011;22052;0.000;0.000;2023-06-22T06:27:06;7.28;;;2.17;;
35971;SDS011;22052;0.000;0.000;2023-06-22T06:29:33;10.80;;;2.20;;
35971;SDS011;22052;0.000;0.000;2023-06-22T06:31:59;8.75;;;2.45;;
35971;SDS011;22052;0.000;0.000;2023-06-22T06:34:25;6.90;;;2.40;;
35971;SDS011;22052;0.000;0.000;2023-06-22T06:36:51;9.07;;;2.25;;
35971;SDS011;22052;0.000;0.000;2023-06-22T06:39:17;7.70;;;1.90;;
35971;SDS011;22052;0.000;0.000;2023-06-22T06:41:43;7.32;;;2.42;;
35971;SDS011;22052;0.000;0.000;2023-06-22T06:44:09;5.70;;;2.53;;
35971;SDS011;22052;0.000;0.000;2023-06-22T06:46:36;8.15;;;2.40;;
35971;SDS011;22052;0.000;0.000;2023-06-22T06:49:02;5.55;;;2.15;;
35971;SDS011;22052;0.000;0.000;2023-06-22T06:51:29;4.82;;;2.17;;
35971;SDS011;22052;0.000;0.000;2023-06-22T06:53:55;9.75;;;2.47;;
35971;SDS011;22052;0.000;0.000;2023-06-22T06:56:21;5.78;;;2.40;;
35971;SDS011;22052;0.000;0.000;2023-06-22T06:58:49;7.47;;;2.33;;
35971;SDS011;22052;0.000;0.000;2023-06-22T07:01:15;6.30;;;2.03;;
35971;SDS011;22052;0.000;0.000;2023-06-22T07:03:41;7.68;;;2.50;;
35971;SDS011;22052;0.000;0.000;2023-06-22T07:06:08;6.90;;;2.35;;
35971;SDS011;22052;0.000;0.000;2023-06-22T07:08:34;8.13;;;2.55;;
35971;SDS011;22052;0.000;0.000;2023-06-22T07:11:01;7.13;;;2.53;;
35971;SDS011;22052;0.000;0.000;2023-06-22T07:13:28;7.65;;;2.40;;
35971;SDS011;22052;0.000;0.000;2023-06-22T07:15:54;7.82;;;2.53;;
35971;SDS011;22052;0.000;0.000;2023-06-22T07:18:20;9.45;;;2.40;;
35971;SDS011;22052;0.000;0.000;2023-06-22T07:20:46;4.57;;;2.30;;
35971;SDS011;22052;0.000;0.000;2023-06-22T07:23:12;7.18;;;2.45;;
35971;SDS011;22052;0.000;0.000;2023-06-22T07:25:38;8.50;;;2.40;;
35971;SDS011;22052;0.000;0.000;2023-06-22T07:28:05;4.68;;;2.35;;
35971;SDS011;22052;0.000;0.000;2023-06-22T07:30:32;11.75;;;2.42;;
35971;SDS011;22052;0.000;0.000;2023-06-22T07:32:58;9.15;;;2.33;;
35971;SDS011;22052;0.000;0.000;2023-06-22T07:35:29;8.48;;;2.38;;
35971;SDS011;22052;0.000;0.000;2023-06-22T07:37:55;7.78;;;2.47;;
35971;SDS011;22052;0.000;0.000;2023-06-22T07:40:22;11.05;;;2.55;;
35971;SDS011;22052;0.000;0.000;2023-06-22T07:42:48;8.27;;;2.60;;
35971;SDS011;22052;0.000;0.000;2023-06-22T07:45:16;12.75;;;2.67;;
35971;SDS011;22052;0.000;0.000;2023-06-22T07:47:42;7.07;;;2.35;;
35971;SDS011;22052;0.000;0.000;2023-06-22T07:50:09;8.82;;;2.95;;
35971;SDS011;22052;0.000;0.000;2023-06-22T07:52:35;7.50;;;2.28;;
35971;SDS011;22052;0.000;0.000;2023-06-22T07:55:01;7.55;;;2.72;;
35971;SDS011;22052;0.000;0.000;2023-06-22T07:57:28;10.50;;;2.08;;
35971;SDS011;22052;0.000;0.000;2023-06-22T08:00:01;7.90;;;3.00;;
35971;SDS011;22052;0.000;0.000;2023-06-22T08:02:31;5.40;;;2.00;;
35971;SDS011;22052;0.000;0.000;2023-06-22T08:04:57;7.28;;;2.47;;
35971;SDS011;22052;0.000;0.000;2023-06-22T08:07:23;6.55;;;2.58;;
35971;SDS011;22052;0.000;0.000;2023-06-22T08:09:49;6.53;;;2.30;;
35971;SDS011;22052;0.000;0.000;2023-06-22T08:12:15;8.13;;;2.35;;
35971;SDS011;22052;0.000;0.000;2023-06-22T08:14:42;11.50;;;2.60;;
35971;SDS011;22052;0.000;0.000;2023-06-22T08:17:11;9.48;;;2.67;;
35971;SDS011;22052;0.000;0.000;2023-06-22T08:19:37;7.38;;;2.25;;
35971;SDS011;22052;0.000;0.000;2023-06-22T08:22:03;5.38;;;2.20;;
35971;SDS011;22052;0.000;0.000;2023-06-22T08:24:29;8.63;;;2.60;;
35971;SDS011;22052;0.000;0.000;2023-06-22T08:26:55;8.43;;;2.53;;
35971;SDS011;22052;0.000;0.000;2023-06-22T08:29:22;7.05;;;3.17;;
35971;SDS011;22052;0.000;0.000;2023-06-22T08:31:48;6.85;;;2.65;;
35971;SDS011;22052;0.000;0.000;2023-06-22T08:34:14;5.38;;;2.30;;
35971;SDS011;22052;0.000;0.000;2023-06-22T08:36:40;10.45;;;2.80;;
35971;SDS011;22052;0.000;0.000;2023-06-22T08:39:08;8.20;;;2.92;;
35971;SDS011;22052;0.000;0.000;2023-06-22T08:41:34;7.85;;;2.65;;
35971;SDS011;22052;0.000;0.000;2023-06-22T08:44:00;9.88;;;2.80;;
35971;SDS011;22052;0.000;0.000;2023-06-22T08:46:27;9.63;;;2.78;;
35971;SDS011;22052;0.000;0.000;2023-06-22T08:48:59;12.60;;;2.85;;
35971;SDS011;22052;0.000;0.000;2023-06-22T08:51:25;8.57;;;2.83;;
35971;SDS011;22052;0.000;0.000;2023-06-22T08:53:52;8.73;;;2.78;;
35971;SDS011;22052;0.000;0.000;2023-06-22T08:56:19;8.15;;;2.65;;
35971;SDS011;22052;0.000;0.000;2023-06-22T08:58:45;6.32;;;2.75;;
35971;SDS011;22052;0.000;0.000;2023-06-22T09:01:11;5.45;;;2.55;;
35971;SDS011;22052;0.000;0.000;2023-06-22T09:03:40;6.68;;;2.47;;
35971;SDS011;22052;0.000;0.000;2023-06-22T09:06:06;6.57;;;2.75;;
35971;SDS011;22052;0.000;0.000;2023-06-22T09:08:34;9.68;;;2.92;;
35971;SDS011;22052;0.000;0.000;2023-06-22T09:11:00;11.13;;;3.05;;
35971;SDS011;22052;0.000;0.000;2023-06-22T09:13:27;8.48;;;2.75;;
35971;SDS011;22052;0.000;0.000;2023-06-22T09:15:54;6.93;;;2.97;;
35971;SDS011;22052;0.000;0.000;2023-06-22T09:18:20;7.00;;;2.63;;
35971;SDS011;22052;0.000;0.000;2023-06-22T09:20:46;10.68;;;2.95;;
35971;SDS011;22052;0.000;0.000;2023-06-22T09:23:12;11.43;;;3.10;;
35971;SDS011;22052;0.000;0.000;2023-06-22T09:25:38;7.28;;;2.70;;
35971;SDS011;22052;0.000;0.000;2023-06-22T09:28:05;7.35;;;3.03;;
35971;SDS011;22052;0.000;0.000;2023-06-22T09:30:31;9.13;;;3.08;;
35971;SDS011;22052;0.000;0.000;2023-06-22T09:32:58;11.10;;;2.90;;
35971;SDS011;22052;0.000;0.000;2023-06-22T09:35:25;9.02;;;2.88;;
35971;SDS011;22052;0.000;0.000;2023-06-22T09:37:51;8.73;;;2.60;;
35971;SDS011;22052;0.000;0.000;2023-06-22T09:40:17;7.70;;;3.15;;
35971;SDS011;22052;0.000;0.000;2023-06-22T09:42:43;7.80;;;3.13;;
35971;SDS011;22052;0.000;0.000;2023-06-22T09:45:09;8.13;;;2.92;;
35971;SDS011;22052;0.000;0.000;2023-06-22T09:47:35;4.20;;;2.47;;
35971;SDS011;22052;0.000;0.000;2023-06-22T09:50:02;11.90;;;3.15;;
35971;SDS011;22052;0.000;0.000;2023-06-22T09:52:28;10.73;;;2.88;;
35971;SDS011;22052;0.000;0.000;2023-06-22T09:54:54;10.45;;;2.92;;
35971;SDS011;22052;0.000;0.000;2023-06-22T09:57:20;8.02;;;2.90;;
35971;SDS011;22052;0.000;0.000;2023-06-22T09:59:46;5.70;;;2.53;;
35971;SDS011;22052;0.000;0.000;2023-06-22T10:02:13;10.27;;;2.70;;
35971;SDS011;22052;0.000;0.000;2023-06-22T10:04:39;7.78;;;2.72;;
35971;SDS011;22052;0.000;0.000;2023-06-22T10:07:05;8.75;;;2.88;;
35971;SDS011;22052;0.000;0.000;2023-06-22T10:09:31;9.95;;;3.25;;
35971;SDS011;22052;0.000;0.000;2023-06-22T10:11:57;10.57;;;2.70;;
35971;SDS011;22052;0.000;0.000;2023-06-22T10:14:23;9.15;;;2.85;;
35971;SDS011;22052;0.000;0.000;2023-06-22T10:16:51;12.68;;;3.25;;
35971;SDS011;22052;0.000;0.000;2023-06-22T10:19:18;10.05;;;2.92;;
35971;SDS011;22052;0.000;0.000;2023-06-22T10:21:44;11.57;;;3.10;;
35971;SDS011;22052;0.000;0.000;2023-06-22T10:24:10;8.75;;;3.17;;
35971;SDS011;22052;0.000;0.000;2023-06-22T10:26:36;8.25;;;2.78;;
35971;SDS011;22052;0.000;0.000;2023-06-22T10:29:03;7.22;;;2.85;;
35971;SDS011;22052;0.000;0.000;2023-06-22T10:31:29;8.60;;;3.10;;
35971;SDS011;22052;0.000;0.000;2023-06-22T10:33:55;8.90;;;2.97;;
35971;SDS011;22052;0.000;0.000;2023-06-22T10:36:22;6.32;;;2.70;;
35971;SDS011;22052;0.000;0.000;2023-06-22T10:38:48;5.57;;;2.65;;
35971;SDS011;22052;0.000;0.000;2023-06-22T10:41:14;11.35;;;3.45;;
35971;SDS011;22052;0.000;0.000;2023-06-22T10:43:41;6.82;;;2.75;;
35971;SDS011;22052;0.000;0.000;2023-06-22T10:46:07;7.47;;;3.15;;
35971;SDS011;22052;0.000;0.000;2023-06-22T10:48:34;5.30;;;2.53;;
35971;SDS011;22052;0.000;0.000;2023-06-22T10:51:00;7.00;;;2.65;;
35971;SDS011;22052;0.000;0.000;2023-06-22T10:53:26;10.30;;;2.92;;
35971;SDS011;22052;0.000;0.000;2023-06-22T10:55:52;7.00;;;2.83;;
35971;SDS011;22052;0.000;0.000;2023-06-22T10:58:19;7.13;;;2.78;;
35971;SDS011;22052;0.000;0.000;2023-06-22T11:00:45;6.20;;;2.80;;
35971;SDS011;22052;0.000;0.000;2023-06-22T11:03:11;6.93;;;2.72;;
35971;SDS011;22052;0.000;0.000;2023-06-22T11:05:39;5.45;;;2.78;;
35971;SDS011;22052;0.000;0.000;2023-06-22T11:08:06;10.93;;;2.67;;
35971;SDS011;22052;0.000;0.000;2023-06-22T11:10:32;8.25;;;2.97;;
35971;SDS011;22052;0.000;0.000;2023-06-22T11:12:58;10.63;;;2.95;;
35971;SDS011;22052;0.000;0.000;2023-06-22T11:15:25;4.57;;;2.50;;
35971;SDS011;22052;0.000;0.000;2023-06-22T11:17:51;6.53;;;2.80;;
35971;SDS011;22052;0.000;0.000;2023-06-22T11:20:17;8.88;;;3.00;;
35971;SDS011;22052;0.000;0.000;2023-06-22T11:22:43;9.38;;;2.72;;
35971;SDS011;22052;0.000;0.000;2023-06-22T11:25:09;9.05;;;2.80;;
35971;SDS011;22052;0.000;0.000;2023-06-22T11:27:39;10.30;;;3.30;;
35971;SDS011;22052;0.000;0.000;2023-06-22T11:30:05;7.85;;;3.03;;
35971;SDS011;22052;0.000;0.000;2023-06-22T11:32:31;8.18;;;2.80;;
35971;SDS011;22052;0.000;0.000;2023-06-22T11:34:57;7.80;;;2.85;;
35971;SDS011;22052;0.000;0.000;2023-06-22T11:37:24;8.20;;;3.05;;
35971;SDS011;22052;0.000;0.000;2023-06-22T11:39:50;12.77;;;3.05;;
35971;SDS011;22052;0.000;0.000;2023-06-22T11:42:17;11.48;;;2.97;;
35971;SDS011;22052;0.000;0.000;2023-06-22T13:00:38;6.47;;;3.00;;
35971;SDS011;22052;0.000;0.000;2023-06-22T13:03:08;11.10;;;3.63;;
35971;SDS011;22052;0.000;0.000;2023-06-22T13:05:40;8.07;;;3.30;;
35971;SDS011;22052;0.000;0.000;2023-06-22T13:08:09;7.50;;;3.20;;
35971;SDS011;22052;0.000;0.000;2023-06-22T13:10:49;7.53;;;3.20;;
35971;SDS011;22052;0.000;0.000;2023-06-22T13:28:41;10.77;;;2.80;;
35971;SDS011;22052;0.000;0.000;2023-06-22T13:31:07;9.13;;;3.10;;
35971;SDS011;22052;0.000;0.000;2023-06-22T13:33:34;13.05;;;3.15;;
35971;SDS011;22052;0.000;0.000;2023-06-22T13:36:00;7.95;;;3.03;;
35971;SDS011;22052;0.000;0.000;2023-06-22T13:38:28;9.82;;;3.20;;
35971;SDS011;22052;0.000;0.000;2023-06-22T13:40:55;8.25;;;3.50;;
35971;SDS011;22052;0.000;0.000;2023-06-22T13:43:23;10.63;;;2.90;;
35971;SDS011;22052;0.000;0.000;2023-06-22T13:45:49;8.30;;;2.70;;
35971;SDS011;22052;0.000;0.000;2023-06-22T13:48:15;12.68;;;3.33;;
35971;SDS011;22052;0.000;0.000;2023-06-22T13:50:42;7.97;;;3.00;;
35971;SDS011;22052;0.000;0.000;2023-06-22T13:53:09;5.38;;;2.80;;
35971;SDS011;22052;0.000;0.000;2023-06-22T13:55:35;7.10;;;2.75;;
35971;SDS011;22052;0.000;0.000;2023-06-22T13:58:01;9.43;;;3.10;;
35971;SDS011;22052;0.000;0.000;2023-06-22T14:00:27;8.90;;;3.35;;
35971;SDS011;22052;0.000;0.000;2023-06-22T14:02:53;7.10;;;2.80;;
35971;SDS011;22052;0.000;0.000;2023-06-22T14:05:20;9.25;;;3.20;;
35971;SDS011;22052;0.000;0.000;2023-06-22T14:07:46;6.32;;;2.65;;
35971;SDS011;22052;0.000;0.000;2023-06-22T14:10:12;10.00;;;2.95;;
35971;SDS011;22052;0.000;0.000;2023-06-22T14:12:38;7.40;;;3.20;;
35971;SDS011;22052;0.000;0.000;2023-06-22T14:15:04;10.13;;;3.67;;
35971;SDS011;22052;0.000;0.000;2023-06-22T14:17:31;6.07;;;2.90;;
35971;SDS011;22052;0.000;0.000;2023-06-22T14:19:57;8.90;;;3.03;;
35971;SDS011;22052;0.000;0.000;2023-06-22T14:22:23;9.23;;;3.47;;
35971;SDS011;22052;0.000;0.000;2023-06-22T14:37:22;7.00;;;3.50;;
35971;SDS011;22052;0.000;0.000;2023-06-22T14:39:48;6.78;;;3.10;;
35971;SDS011;22052;0.000;0.000;2023-06-22T14:42:14;9.02;;;3.30;;
35971;SDS011;22052;0.000;0.000;2023-06-22T14:44:41;8.18;;;3.35;;
35971;SDS011;22052;0.000;0.000;2023-06-22T14:47:07;8.95;;;3.45;;
35971;SDS011;22052;0.000;0.000;2023-06-22T14:49:33;7.00;;;3.22;;
35971;SDS011;22052;0.000;0.000;2023-06-22T14:52:00;10.93;;;3.50;;
35971;SDS011;22052;0.000;0.000;2023-06-22T14:54:27;8.23;;;3.42;;
35971;SDS011;22052;0.000;0.000;2023-06-22T14:56:53;8.13;;;3.40;;
35971;SDS011;22052;0.000;0.000;2023-06-22T14:59:19;9.18;;;3.35;;
35971;SDS011;22052;0.000;0.000;2023-06-22T15:01:45;8.70;;;3.30;;
35971;SDS011;22052;0.000;0.000;2023-06-22T15:04:11;8.80;;;3.35;;
35971;SDS011;22052;0.000;0.000;2023-06-22T15:06:37;7.30;;;3.20;;
35971;SDS011;22052;0.000;0.000;2023-06-22T15:09:03;6.75;;;3.03;;
35971;SDS011;22052;0.000;0.000;2023-06-22T15:11:29;7.60;;;3.10;;
35971;SDS011;22052;0.000;0.000;2023-06-22T15:13:58;9.30;;;3.58;;
35971;SDS011;22052;0.000;0.000;2023-06-22T15:16:25;12.48;;;3.35;;
35971;SDS011;22052;0.000;0.000;2023-06-22T15:18:51;8.15;;;3.63;;
35971;SDS011;22052;0.000;0.000;2023-06-22T15:21:17;7.05;;;3.38;;
35971;SDS011;22052;0.000;0.000;2023-06-22T15:23:44;11.48;;;3.85;;
35971;SDS011;22052;0.000;0.000;2023-06-22T15:26:10;8.45;;;3.17;;
35971;SDS011;22052;0.000;0.000;2023-06-22T15:28:36;9.20;;;3.40;;
35971;SDS011;22052;0.000;0.000;2023-06-22T15:31:03;9.90;;;3.75;;
35971;SDS011;22052;0.000;0.000;2023-06-22T15:33:29;8.70;;;3.50;;
35971;SDS011;22052;0.000;0.000;2023-06-22T15:35:57;9.23;;;3.58;;
35971;SDS011;22052;0.000;0.000;2023-06-22T15:38:28;8.80;;;3.55;;
35971;SDS011;22052;0.000;0.000;2023-06-22T15:40:54;7.65;;;3.40;;
35971;SDS011;22052;0.000;0.000;2023-06-22T15:43:20;8.68;;;3.80;;
35971;SDS011;22052;0.000;0.000;2023-06-22T15:45:46;13.52;;;3.67;;
35971;SDS011;22052;0.000;0.000;2023-06-22T15:48:14;9.95;;;3.40;;
35971;SDS011;22052;0.000;0.000;2023-06-22T15:50:40;10.52;;;3.65;;
35971;SDS011;22052;0.000;0.000;2023-06-22T15:53:06;7.00;;;3.40;;
35971;SDS011;22052;0.000;0.000;2023-06-22T15:55:32;11.23;;;3.30;;
35971;SDS011;22052;0.000;0.000;2023-06-22T15:58:00;10.43;;;3.20;;
35971;SDS011;22052;0.000;0.000;2023-06-22T16:00:26;9.77;;;3.50;;
35971;SDS011;22052;0.000;0.000;2023-06-22T16:02:53;13.70;;;3.65;;
35971;SDS011;22052;0.000;0.000;2023-06-22T16:05:19;8.18;;;3.33;;
35971;SDS011;22052;0.000;0.000;2023-06-22T16:07:45;12.15;;;3.30;;
35971;SDS011;22052;0.000;0.000;2023-06-22T16:10:11;7.93;;;2.97;;
35971;SDS011;22052;0.000;0.000;2023-06-22T16:12:41;10.05;;;3.15;;
35971;SDS011;22052;0.000;0.000;2023-06-22T16:15:07;11.10;;;3.33;;
35971;SDS011;22052;0.000;0.000;2023-06-22T16:17:33;11.13;;;3.17;;
35971;SDS011;22052;0.000;0.000;2023-06-22T16:20:03;13.70;;;3.63;;
35971;SDS011;22052;0.000;0.000;2023-06-22T16:22:31;8.38;;;3.05;;
35971;SDS011;22052;0.000;0.000;2023-06-22T16:24:57;8.57;;;3.38;;
35971;SDS011;22052;0.000;0.000;2023-06-22T16:27:24;10.23;;;3.10;;
35971;SDS011;22052;0.000;0.000;2023-06-22T16:29:50;9.27;;;3.10;;
35971;SDS011;22052;0.000;0.000;2023-06-22T16:32:16;9.05;;;3.60;;
35971;SDS011;22052;0.000;0.000;2023-06-22T16:34:43;10.18;;;3.03;;
35971;SDS011;22052;0.000;0.000;2023-06-22T16:37:11;10.77;;;3.30;;
35971;SDS011;22052;0.000;0.000;2023-06-22T16:39:37;8.13;;;3.60;;
35971;SDS011;22052;0.000;0.000;2023-06-22T16:42:03;9.57;;;3.20;;
35971;SDS011;22052;0.000;0.000;2023-06-22T16:44:29;9.15;;;2.95;;
35971;SDS011;22052;0.000;0.000;2023-06-22T16:46:57;7.38;;;3.47;;